sensor_id;sensor_type;location;lat;lon;timestamp;pressure;altitude;pressure_sealevel;temperature;humidity
57827;BME280;43656;57.746;11.780;2023-01-05T00:01:35;99074.19;;;4.86;100.00
57827;BME280;43656;57.746;11.780;2023-01-05T00:04:01;99114.19;;;4.99;100.00
57827;BME280;43656;57.746;11.780;2023-01-05T00:06:26;99113.78;;;5.09;100.00
57827;BME280;43656;57.746;11.780;2023-01-05T00:08:51;99119.72;;;5.24;100.00
57827;BME280;43656;57.746;11.780;2023-01-05T00:11:19;99123.63;;;5.22;100.00
57827;BME280;43656;57.746;11.780;2023-01-05T00:14:04;99128.13;;;4.81;100.00
57827;BME280;43656;57.746;11.780;2023-01-05T00:16:48;99134.88;;;4.84;100.00
57827;BME280;43656;57.746;11.780;2023-01-05T00:19:32;99129.34;;;4.79;100.00
57827;BME280;43656;57.746;11.780;2023-01-05T00:25:08;99141.84;;;4.78;100.00
57827;BME280;43656;57.746;11.780;2023-01-05T00:27:34;99117.16;;;4.50;100.00
57827;BME280;43656;57.746;11.780;2023-01-05T00:30:00;99116.75;;;4.39;100.00
57827;BME280;43656;57.746;11.780;2023-01-05T00:32:26;99135.22;;;4.47;100.00
57827;BME280;43656;57.746;11.780;2023-01-05T00:34:56;99153.03;;;4.47;100.00
57827;BME280;43656;57.746;11.780;2023-01-05T00:37:24;99150.28;;;4.27;100.00
57827;BME280;43656;57.746;11.780;2023-01-05T00:39:50;99146.63;;;4.35;100.00
57827;BME280;43656;57.746;11.780;2023-01-05T00:42:16;99155.75;;;4.60;100.00
57827;BME280;43656;57.746;11.780;2023-01-05T00:44:42;99171.44;;;4.42;100.00
57827;BME280;43656;57.746;11.780;2023-01-05T00:47:07;99171.66;;;4.40;100.00
57827;BME280;43656;57.746;11.780;2023-01-05T00:49:33;99158.59;;;4.04;100.00
57827;BME280;43656;57.746;11.780;2023-01-05T00:51:58;99163.59;;;4.27;100.00
57827;BME280;43656;57.746;11.780;2023-01-05T00:54:24;99151.28;;;4.19;100.00
57827;BME280;43656;57.746;11.780;2023-01-05T00:56:49;99167.31;;;4.33;100.00
57827;BME280;43656;57.746;11.780;2023-01-05T00:59:15;99164.94;;;4.10;100.00
57827;BME280;43656;57.746;11.780;2023-01-05T01:01:44;99187.63;;;3.99;100.00
57827;BME280;43656;57.746;11.780;2023-01-05T01:04:11;99194.44;;;4.08;100.00
57827;BME280;43656;57.746;11.780;2023-01-05T01:06:36;99193.53;;;4.36;100.00
57827;BME280;43656;57.746;11.780;2023-01-05T01:09:02;99198.69;;;4.03;100.00
57827;BME280;43656;57.746;11.780;2023-01-05T01:11:27;99207.50;;;4.03;100.00
57827;BME280;43656;57.746;11.780;2023-01-05T01:13:53;99206.59;;;3.89;100.00
57827;BME280;43656;57.746;11.780;2023-01-05T01:16:18;99200.28;;;3.97;100.00
57827;BME280;43656;57.746;11.780;2023-01-05T01:18:44;99201.28;;;3.89;100.00
57827;BME280;43656;57.746;11.780;2023-01-05T01:21:09;99189.25;;;4.00;100.00
57827;BME280;43656;57.746;11.780;2023-01-05T01:23:35;99195.22;;;4.02;100.00
57827;BME280;43656;57.746;11.780;2023-01-05T01:26:05;99197.81;;;3.89;100.00
57827;BME280;43656;57.746;11.780;2023-01-05T01:28:31;99239.69;;;4.08;100.00
57827;BME280;43656;57.746;11.780;2023-01-05T01:30:56;99231.31;;;4.11;100.00
57827;BME280;43656;57.746;11.780;2023-01-05T01:33:22;99206.91;;;3.73;100.00
57827;BME280;43656;57.746;11.780;2023-01-05T01:35:47;99249.03;;;3.97;100.00
57827;BME280;43656;57.746;11.780;2023-01-05T01:38:12;99265.25;;;4.03;100.00
57827;BME280;43656;57.746;11.780;2023-01-05T01:40:43;99270.59;;;4.09;100.00
57827;BME280;43656;57.746;11.780;2023-01-05T01:43:13;99290.69;;;4.12;100.00
57827;BME280;43656;57.746;11.780;2023-01-05T01:45:39;99295.97;;;4.05;100.00
57827;BME280;43656;57.746;11.780;2023-01-05T01:48:05;99227.66;;;3.56;100.00
57827;BME280;43656;57.746;11.780;2023-01-05T01:50:35;99316.06;;;4.08;100.00
57827;BME280;43656;57.746;11.780;2023-01-05T01:53:27;99332.50;;;3.90;100.00
57827;BME280;43656;57.746;11.780;2023-01-05T01:55:55;99327.38;;;3.88;100.00
57827;BME280;43656;57.746;11.780;2023-01-05T01:58:25;99334.22;;;3.97;100.00
57827;BME280;43656;57.746;11.780;2023-01-05T02:00:52;99346.50;;;3.98;100.00
57827;BME280;43656;57.746;11.780;2023-01-05T02:03:18;99351.22;;;4.03;100.00
57827;BME280;43656;57.746;11.780;2023-01-05T02:05:43;99309.88;;;3.79;100.00
57827;BME280;43656;57.746;11.780;2023-01-05T02:08:14;99360.25;;;4.02;100.00
57827;BME280;43656;57.746;11.780;2023-01-05T02:19:03;99406.88;;;3.98;100.00
57827;BME280;43656;57.746;11.780;2023-01-05T02:27:36;99428.03;;;4.06;100.00
57827;BME280;43656;57.746;11.780;2023-01-05T02:40:48;99460.94;;;3.98;100.00
57827;BME280;43656;57.746;11.780;2023-01-05T02:43:17;99459.00;;;3.71;100.00
57827;BME280;43656;57.746;11.780;2023-01-05T02:45:47;99499.75;;;3.93;100.00
57827;BME280;43656;57.746;11.780;2023-01-05T02:48:12;99513.50;;;4.11;100.00
57827;BME280;43656;57.746;11.780;2023-01-05T02:53:35;99534.72;;;4.05;100.00
57827;BME280;43656;57.746;11.780;2023-01-05T02:58:29;99557.00;;;4.04;100.00
57827;BME280;43656;57.746;11.780;2023-01-05T03:00:59;99563.25;;;4.11;100.00
57827;BME280;43656;57.746;11.780;2023-01-05T03:03:38;99546.47;;;3.95;100.00
57827;BME280;43656;57.746;11.780;2023-01-05T03:08:41;99559.66;;;4.04;100.00
57827;BME280;43656;57.746;11.780;2023-01-05T03:11:58;99580.16;;;3.73;100.00
57827;BME280;43656;57.746;11.780;2023-01-05T03:15:21;99574.94;;;3.80;100.00
57827;BME280;43656;57.746;11.780;2023-01-05T03:17:53;99590.72;;;3.82;100.00
57827;BME280;43656;57.746;11.780;2023-01-05T03:20:23;99549.75;;;3.61;100.00
57827;BME280;43656;57.746;11.780;2023-01-05T03:22:50;99609.06;;;3.91;100.00
57827;BME280;43656;57.746;11.780;2023-01-05T03:25:37;99626.13;;;3.67;100.00
57827;BME280;43656;57.746;11.780;2023-01-05T03:28:29;99618.44;;;3.72;100.00
57827;BME280;43656;57.746;11.780;2023-01-05T03:31:22;99634.78;;;3.84;100.00
57827;BME280;43656;57.746;11.780;2023-01-05T03:37:03;99626.84;;;3.46;100.00
57827;BME280;43656;57.746;11.780;2023-01-05T03:39:32;99619.06;;;3.45;100.00
57827;BME280;43656;57.746;11.780;2023-01-05T03:42:00;99622.47;;;3.53;100.00
57827;BME280;43656;57.746;11.780;2023-01-05T03:44:26;99642.38;;;3.58;100.00
57827;BME280;43656;57.746;11.780;2023-01-05T03:46:51;99623.53;;;3.44;100.00
57827;BME280;43656;57.746;11.780;2023-01-05T03:49:17;99633.66;;;3.49;100.00
57827;BME280;43656;57.746;11.780;2023-01-05T03:51:42;99660.16;;;3.57;100.00
57827;BME280;43656;57.746;11.780;2023-01-05T03:54:09;99659.59;;;3.47;100.00
57827;BME280;43656;57.746;11.780;2023-01-05T03:56:35;99684.28;;;3.56;100.00
57827;BME280;43656;57.746;11.780;2023-01-05T03:59:00;99702.81;;;3.64;100.00
57827;BME280;43656;57.746;11.780;2023-01-05T04:01:25;99721.78;;;3.46;100.00
57827;BME280;43656;57.746;11.780;2023-01-05T04:03:53;99719.81;;;3.40;100.00
57827;BME280;43656;57.746;11.780;2023-01-05T04:06:19;99709.50;;;3.45;100.00
57827;BME280;43656;57.746;11.780;2023-01-05T04:08:44;99674.53;;;3.10;100.00
57827;BME280;43656;57.746;11.780;2023-01-05T04:11:18;99703.84;;;3.25;100.00
57827;BME280;43656;57.746;11.780;2023-01-05T04:13:44;99741.06;;;3.25;100.00
57827;BME280;43656;57.746;11.780;2023-01-05T04:16:12;99748.94;;;3.56;100.00
57827;BME280;43656;57.746;11.780;2023-01-05T04:18:40;99750.84;;;3.24;100.00
57827;BME280;43656;57.746;11.780;2023-01-05T04:21:06;99754.50;;;3.46;100.00
57827;BME280;43656;57.746;11.780;2023-01-05T04:23:35;99760.44;;;3.34;100.00
57827;BME280;43656;57.746;11.780;2023-01-05T04:26:01;99757.63;;;3.04;100.00
57827;BME280;43656;57.746;11.780;2023-01-05T04:28:26;99801.19;;;3.26;100.00
57827;BME280;43656;57.746;11.780;2023-01-05T04:30:53;99783.66;;;3.40;100.00
57827;BME280;43656;57.746;11.780;2023-01-05T04:33:20;99804.22;;;3.23;100.00
57827;BME280;43656;57.746;11.780;2023-01-05T04:35:46;99813.72;;;3.40;100.00
57827;BME280;43656;57.746;11.780;2023-01-05T04:38:11;99816.97;;;3.27;100.00
57827;BME280;43656;57.746;11.780;2023-01-05T04:40:38;99831.94;;;3.28;100.00
57827;BME280;43656;57.746;11.780;2023-01-05T04:43:03;99830.19;;;3.13;100.00
57827;BME280;43656;57.746;11.780;2023-01-05T04:45:29;99810.53;;;2.91;100.00
57827;BME280;43656;57.746;11.780;2023-01-05T04:47:54;99858.41;;;3.14;100.00
57827;BME280;43656;57.746;11.780;2023-01-05T04:50:20;99830.41;;;3.03;100.00
57827;BME280;43656;57.746;11.780;2023-01-05T04:52:45;99881.66;;;3.20;100.00
57827;BME280;43656;57.746;11.780;2023-01-05T04:55:11;99891.63;;;3.18;100.00
57827;BME280;43656;57.746;11.780;2023-01-05T04:57:37;99914.97;;;3.30;100.00
57827;BME280;43656;57.746;11.780;2023-01-05T05:00:03;99891.03;;;3.39;100.00
57827;BME280;43656;57.746;11.780;2023-01-05T05:02:29;99901.25;;;3.19;100.00
57827;BME280;43656;57.746;11.780;2023-01-05T05:04:57;99929.97;;;3.32;100.00
57827;BME280;43656;57.746;11.780;2023-01-05T05:07:22;99934.59;;;3.29;100.00
57827;BME280;43656;57.746;11.780;2023-01-05T05:09:48;99928.41;;;3.06;100.00
57827;BME280;43656;57.746;11.780;2023-01-05T05:12:13;99964.53;;;3.23;100.00
57827;BME280;43656;57.746;11.780;2023-01-05T05:14:40;99977.00;;;3.23;100.00
57827;BME280;43656;57.746;11.780;2023-01-05T05:17:05;99986.47;;;3.25;100.00
57827;BME280;43656;57.746;11.780;2023-01-05T05:19:31;100003.53;;;3.39;100.00
57827;BME280;43656;57.746;11.780;2023-01-05T05:21:56;100009.09;;;3.13;100.00
57827;BME280;43656;57.746;11.780;2023-01-05T05:24:21;100005.47;;;3.06;100.00
57827;BME280;43656;57.746;11.780;2023-01-05T05:26:47;100038.69;;;3.18;100.00
57827;BME280;43656;57.746;11.780;2023-01-05T05:29:12;100041.69;;;3.15;100.00
57827;BME280;43656;57.746;11.780;2023-01-05T05:31:38;100031.03;;;3.07;100.00
57827;BME280;43656;57.746;11.780;2023-01-05T05:34:03;100056.44;;;3.26;100.00
57827;BME280;43656;57.746;11.780;2023-01-05T05:36:28;100058.59;;;3.22;100.00
57827;BME280;43656;57.746;11.780;2023-01-05T05:38:54;100054.63;;;3.18;100.00
57827;BME280;43656;57.746;11.780;2023-01-05T05:41:20;100069.78;;;2.77;100.00
57827;BME280;43656;57.746;11.780;2023-01-05T05:43:46;100075.44;;;2.98;100.00
57827;BME280;43656;57.746;11.780;2023-01-05T05:46:11;100072.63;;;2.92;100.00
57827;BME280;43656;57.746;11.780;2023-01-05T05:48:37;100074.09;;;2.78;100.00
57827;BME280;43656;57.746;11.780;2023-01-05T05:51:02;100092.88;;;2.93;100.00
57827;BME280;43656;57.746;11.780;2023-01-05T05:53:28;100102.34;;;2.95;100.00
57827;BME280;43656;57.746;11.780;2023-01-05T05:55:53;100113.94;;;2.94;100.00
57827;BME280;43656;57.746;11.780;2023-01-05T05:58:19;100131.25;;;2.98;100.00
57827;BME280;43656;57.746;11.780;2023-01-05T06:00:45;100149.66;;;3.00;100.00
57827;BME280;43656;57.746;11.780;2023-01-05T06:03:10;100162.63;;;3.19;100.00
57827;BME280;43656;57.746;11.780;2023-01-05T06:05:36;100169.09;;;3.17;100.00
57827;BME280;43656;57.746;11.780;2023-01-05T06:08:02;100174.75;;;3.05;100.00
57827;BME280;43656;57.746;11.780;2023-01-05T06:10:27;100180.88;;;2.98;100.00
57827;BME280;43656;57.746;11.780;2023-01-05T06:12:53;100166.63;;;3.15;100.00
57827;BME280;43656;57.746;11.780;2023-01-05T06:15:21;100195.34;;;2.95;100.00
57827;BME280;43656;57.746;11.780;2023-01-05T06:17:46;100197.84;;;3.05;100.00
57827;BME280;43656;57.746;11.780;2023-01-05T06:20:13;100198.66;;;2.97;100.00
57827;BME280;43656;57.746;11.780;2023-01-05T06:22:41;100216.28;;;3.06;100.00
57827;BME280;43656;57.746;11.780;2023-01-05T06:25:06;100226.56;;;2.93;100.00
57827;BME280;43656;57.746;11.780;2023-01-05T06:27:32;100221.91;;;2.87;100.00
57827;BME280;43656;57.746;11.780;2023-01-05T06:29:58;100245.00;;;2.95;100.00
57827;BME280;43656;57.746;11.780;2023-01-05T06:32:23;100249.16;;;3.14;100.00
57827;BME280;43656;57.746;11.780;2023-01-05T06:34:48;100246.03;;;3.02;100.00
57827;BME280;43656;57.746;11.780;2023-01-05T06:37:14;100276.22;;;3.01;100.00
57827;BME280;43656;57.746;11.780;2023-01-05T06:39:39;100271.63;;;3.19;100.00
57827;BME280;43656;57.746;11.780;2023-01-05T06:42:05;100251.34;;;3.02;100.00
57827;BME280;43656;57.746;11.780;2023-01-05T06:44:30;100279.28;;;2.64;100.00
57827;BME280;43656;57.746;11.780;2023-01-05T06:46:56;100295.16;;;2.98;100.00
57827;BME280;43656;57.746;11.780;2023-01-05T06:49:21;100302.44;;;2.88;100.00
57827;BME280;43656;57.746;11.780;2023-01-05T06:51:47;100316.41;;;2.90;100.00
57827;BME280;43656;57.746;11.780;2023-01-05T06:54:13;100315.03;;;2.77;100.00
57827;BME280;43656;57.746;11.780;2023-01-05T06:56:38;100320.91;;;2.89;100.00
57827;BME280;43656;57.746;11.780;2023-01-05T06:59:03;100327.22;;;3.04;100.00
57827;BME280;43656;57.746;11.780;2023-01-05T07:01:29;100350.47;;;2.94;100.00
57827;BME280;43656;57.746;11.780;2023-01-05T07:03:54;100358.09;;;2.89;100.00
57827;BME280;43656;57.746;11.780;2023-01-05T07:06:20;100359.59;;;2.92;100.00
57827;BME280;43656;57.746;11.780;2023-01-05T07:08:45;100366.38;;;2.86;100.00
57827;BME280;43656;57.746;11.780;2023-01-05T07:11:11;100370.06;;;2.93;100.00
57827;BME280;43656;57.746;11.780;2023-01-05T07:13:38;100382.16;;;2.88;100.00
57827;BME280;43656;57.746;11.780;2023-01-05T07:16:03;100410.41;;;2.89;100.00
57827;BME280;43656;57.746;11.780;2023-01-05T07:18:29;100415.09;;;2.95;100.00
57827;BME280;43656;57.746;11.780;2023-01-05T07:20:54;100418.94;;;3.00;100.00
57827;BME280;43656;57.746;11.780;2023-01-05T07:23:20;100427.00;;;2.82;100.00
57827;BME280;43656;57.746;11.780;2023-01-05T07:25:45;100435.69;;;3.01;100.00
57827;BME280;43656;57.746;11.780;2023-01-05T07:28:10;100434.25;;;3.06;100.00
57827;BME280;43656;57.746;11.780;2023-01-05T07:30:36;100446.09;;;2.86;100.00
57827;BME280;43656;57.746;11.780;2023-01-05T07:33:01;100444.03;;;2.72;100.00
57827;BME280;43656;57.746;11.780;2023-01-05T07:35:27;100462.19;;;2.85;100.00
57827;BME280;43656;57.746;11.780;2023-01-05T07:37:57;100471.75;;;2.95;100.00
57827;BME280;43656;57.746;11.780;2023-01-05T07:40:22;100488.41;;;2.79;100.00
57827;BME280;43656;57.746;11.780;2023-01-05T07:42:51;100474.41;;;2.69;100.00
57827;BME280;43656;57.746;11.780;2023-01-05T07:45:17;100514.69;;;3.09;100.00
57827;BME280;43656;57.746;11.780;2023-01-05T07:47:43;100520.13;;;2.81;100.00
57827;BME280;43656;57.746;11.780;2023-01-05T07:50:08;100526.75;;;2.77;100.00
57827;BME280;43656;57.746;11.780;2023-01-05T07:52:34;100539.16;;;2.68;100.00
57827;BME280;43656;57.746;11.780;2023-01-05T07:54:59;100542.16;;;2.73;100.00
57827;BME280;43656;57.746;11.780;2023-01-05T07:57:25;100551.41;;;2.87;99.88
57827;BME280;43656;57.746;11.780;2023-01-05T07:59:50;100552.66;;;2.75;100.00
57827;BME280;43656;57.746;11.780;2023-01-05T08:02:15;100562.75;;;2.53;100.00
57827;BME280;43656;57.746;11.780;2023-01-05T08:04:41;100558.81;;;2.75;100.00
57827;BME280;43656;57.746;11.780;2023-01-05T08:07:06;100554.09;;;2.69;100.00
57827;BME280;43656;57.746;11.780;2023-01-05T08:09:38;100567.88;;;2.91;99.61
57827;BME280;43656;57.746;11.780;2023-01-05T08:12:26;100536.88;;;2.38;100.00
57827;BME280;43656;57.746;11.780;2023-01-05T08:14:52;100554.50;;;2.56;100.00
57827;BME280;43656;57.746;11.780;2023-01-05T08:17:17;100580.97;;;2.66;99.70
57827;BME280;43656;57.746;11.780;2023-01-05T08:19:43;100576.56;;;2.57;100.00
57827;BME280;43656;57.746;11.780;2023-01-05T08:22:08;100581.59;;;2.42;100.00
57827;BME280;43656;57.746;11.780;2023-01-05T08:24:33;100606.94;;;2.37;100.00
57827;BME280;43656;57.746;11.780;2023-01-05T08:26:59;100567.09;;;2.19;100.00
57827;BME280;43656;57.746;11.780;2023-01-05T08:29:27;100612.09;;;2.56;100.00
57827;BME280;43656;57.746;11.780;2023-01-05T08:31:52;100640.63;;;2.72;99.68
57827;BME280;43656;57.746;11.780;2023-01-05T08:34:18;100661.88;;;2.54;100.00
57827;BME280;43656;57.746;11.780;2023-01-05T08:36:43;100672.50;;;2.54;99.91
57827;BME280;43656;57.746;11.780;2023-01-05T08:39:09;100691.19;;;2.62;99.87
57827;BME280;43656;57.746;11.780;2023-01-05T08:41:37;100650.13;;;2.56;98.69
57827;BME280;43656;57.746;11.780;2023-01-05T08:44:05;100690.50;;;2.96;98.37
57827;BME280;43656;57.746;11.780;2023-01-05T08:46:32;100716.38;;;2.94;97.34
57827;BME280;43656;57.746;11.780;2023-01-05T08:48:59;100718.06;;;2.77;97.73
57827;BME280;43656;57.746;11.780;2023-01-05T08:51:26;100717.94;;;2.78;98.37
57827;BME280;43656;57.746;11.780;2023-01-05T08:53:54;100715.94;;;2.80;97.56
57827;BME280;43656;57.746;11.780;2023-01-05T08:56:21;100725.38;;;2.75;97.61
57827;BME280;43656;57.746;11.780;2023-01-05T08:58:49;100747.22;;;2.69;97.80
57827;BME280;43656;57.746;11.780;2023-01-05T09:01:16;100743.41;;;2.44;98.73
57827;BME280;43656;57.746;11.780;2023-01-05T09:03:43;100756.31;;;2.66;98.12
57827;BME280;43656;57.746;11.780;2023-01-05T09:06:10;100754.16;;;2.52;97.64
57827;BME280;43656;57.746;11.780;2023-01-05T09:08:37;100774.00;;;2.48;98.22
57827;BME280;43656;57.746;11.780;2023-01-05T09:11:08;100760.09;;;2.64;97.33
57827;BME280;43656;57.746;11.780;2023-01-05T09:13:35;100782.19;;;2.64;97.11
57827;BME280;43656;57.746;11.780;2023-01-05T09:16:09;100792.31;;;2.51;98.54
57827;BME280;43656;57.746;11.780;2023-01-05T09:18:36;100797.00;;;2.85;96.74
57827;BME280;43656;57.746;11.780;2023-01-05T09:21:02;100809.72;;;2.91;95.95
57827;BME280;43656;57.746;11.780;2023-01-05T09:23:28;100638.13;;;1.32;98.02
57827;BME280;43656;57.746;11.780;2023-01-05T09:25:53;100816.03;;;2.62;97.99
57827;BME280;43656;57.746;11.780;2023-01-05T09:28:19;100824.69;;;2.64;97.33
57827;BME280;43656;57.746;11.780;2023-01-05T09:30:45;100833.84;;;2.79;96.24
57827;BME280;43656;57.746;11.780;2023-01-05T09:33:10;100841.28;;;2.76;96.38
57827;BME280;43656;57.746;11.780;2023-01-05T09:35:36;100847.13;;;2.52;97.00
57827;BME280;43656;57.746;11.780;2023-01-05T09:38:01;100840.13;;;2.51;96.86
57827;BME280;43656;57.746;11.780;2023-01-05T09:40:27;100858.91;;;2.40;97.63
57827;BME280;43656;57.746;11.780;2023-01-05T09:42:55;100840.38;;;2.20;96.66
57827;BME280;43656;57.746;11.780;2023-01-05T09:45:24;100870.72;;;2.55;97.41
57827;BME280;43656;57.746;11.780;2023-01-05T09:47:51;100880.09;;;2.59;97.00
57827;BME280;43656;57.746;11.780;2023-01-05T09:50:20;100879.34;;;2.67;96.80
57827;BME280;43656;57.746;11.780;2023-01-05T09:52:47;100897.41;;;2.63;96.68
57827;BME280;43656;57.746;11.780;2023-01-05T09:55:18;100905.22;;;2.65;96.41
57827;BME280;43656;57.746;11.780;2023-01-05T09:58:06;100912.63;;;2.61;96.14
57827;BME280;43656;57.746;11.780;2023-01-05T10:00:38;100912.72;;;2.79;95.96
57827;BME280;43656;57.746;11.780;2023-01-05T10:03:10;100920.25;;;2.83;95.02
57827;BME280;43656;57.746;11.780;2023-01-05T10:05:42;100923.09;;;2.72;95.97
57827;BME280;43656;57.746;11.780;2023-01-05T10:08:17;100918.22;;;2.68;95.56
57827;BME280;43656;57.746;11.780;2023-01-05T10:13:27;100901.25;;;2.31;95.57
57827;BME280;43656;57.746;11.780;2023-01-05T10:15:56;100942.81;;;2.70;95.26
57827;BME280;43656;57.746;11.780;2023-01-05T10:18:25;100962.94;;;2.82;95.06
57827;BME280;43656;57.746;11.780;2023-01-05T10:26:00;100992.16;;;2.82;95.30
57827;BME280;43656;57.746;11.780;2023-01-05T10:31:21;101005.22;;;2.66;95.34
57827;BME280;43656;57.746;11.780;2023-01-05T10:33:50;101016.72;;;2.94;93.82
57827;BME280;43656;57.746;11.780;2023-01-05T10:39:21;101031.47;;;2.78;94.20
57827;BME280;43656;57.746;11.780;2023-01-05T10:42:00;101042.09;;;2.88;93.64
57827;BME280;43656;57.746;11.780;2023-01-05T10:44:50;101035.66;;;2.71;93.19
57827;BME280;43656;57.746;11.780;2023-01-05T10:47:17;101052.88;;;2.77;93.34
57827;BME280;43656;57.746;11.780;2023-01-05T10:49:45;101057.22;;;2.68;93.75
57827;BME280;43656;57.746;11.780;2023-01-05T10:52:15;101026.88;;;2.42;93.50
57827;BME280;43656;57.746;11.780;2023-01-05T10:54:59;101055.13;;;2.62;92.89
57827;BME280;43656;57.746;11.780;2023-01-05T11:02:31;101069.53;;;2.69;92.67
57827;BME280;43656;57.746;11.780;2023-01-05T11:05:06;101070.34;;;2.79;92.53
57827;BME280;43656;57.746;11.780;2023-01-05T11:07:50;101083.19;;;2.84;92.55
57827;BME280;43656;57.746;11.780;2023-01-05T11:10:23;101090.88;;;2.97;91.85
57827;BME280;43656;57.746;11.780;2023-01-05T11:12:53;101088.78;;;2.91;92.13
57827;BME280;43656;57.746;11.780;2023-01-05T11:15:20;101096.38;;;2.56;93.14
57827;BME280;43656;57.746;11.780;2023-01-05T11:17:46;101096.91;;;2.99;92.22
57827;BME280;43656;57.746;11.780;2023-01-05T11:20:16;101093.81;;;2.84;91.66
57827;BME280;43656;57.746;11.780;2023-01-05T11:22:42;101106.28;;;2.64;91.65
57827;BME280;43656;57.746;11.780;2023-01-05T11:27:44;101108.66;;;2.96;91.00
57827;BME280;43656;57.746;11.780;2023-01-05T11:32:41;101113.69;;;2.70;91.66
57827;BME280;43656;57.746;11.780;2023-01-05T11:37:53;101136.50;;;2.82;91.12
57827;BME280;43656;57.746;11.780;2023-01-05T11:40:27;101148.53;;;2.87;91.27
57827;BME280;43656;57.746;11.780;2023-01-05T11:42:53;101149.63;;;2.55;92.33
57827;BME280;43656;57.746;11.780;2023-01-05T11:47:57;101153.41;;;3.01;90.86
57827;BME280;43656;57.746;11.780;2023-01-05T11:50:30;101160.44;;;2.92;90.45
57827;BME280;43656;57.746;11.780;2023-01-05T11:53:00;101112.44;;;2.35;91.55
57827;BME280;43656;57.746;11.780;2023-01-05T11:55:37;101158.44;;;2.46;91.74
57827;BME280;43656;57.746;11.780;2023-01-05T12:03:54;101192.72;;;2.58;91.50
57827;BME280;43656;57.746;11.780;2023-01-05T12:15:21;101214.66;;;2.61;91.68
57827;BME280;43656;57.746;11.780;2023-01-05T12:21:06;101204.19;;;2.59;91.53
57827;BME280;43656;57.746;11.780;2023-01-05T12:26:27;101189.78;;;2.52;91.22
57827;BME280;43656;57.746;11.780;2023-01-05T12:32:02;101236.63;;;2.63;90.32
57827;BME280;43656;57.746;11.780;2023-01-05T12:34:37;101251.72;;;2.52;91.34
57827;BME280;43656;57.746;11.780;2023-01-05T12:37:21;101271.28;;;2.61;91.63
57827;BME280;43656;57.746;11.780;2023-01-05T12:51:17;101300.78;;;2.58;90.96
57827;BME280;43656;57.746;11.780;2023-01-05T12:54:00;101298.75;;;2.81;90.29
57827;BME280;43656;57.746;11.780;2023-01-05T12:56:34;101305.19;;;2.78;90.49
57827;BME280;43656;57.746;11.780;2023-01-05T12:59:22;101305.34;;;2.87;89.05
57827;BME280;43656;57.746;11.780;2023-01-05T13:02:00;101318.13;;;2.52;90.11
57827;BME280;43656;57.746;11.780;2023-01-05T13:04:31;101301.94;;;2.65;89.51
57827;BME280;43656;57.746;11.780;2023-01-05T13:06:59;101325.16;;;2.73;90.07
57827;BME280;43656;57.746;11.780;2023-01-05T13:09:31;101337.81;;;3.00;89.50
57827;BME280;43656;57.746;11.780;2023-01-05T13:12:02;101332.66;;;2.58;89.00
57827;BME280;43656;57.746;11.780;2023-01-05T13:14:37;101348.75;;;2.56;89.57
57827;BME280;43656;57.746;11.780;2023-01-05T13:17:13;101343.25;;;2.89;89.30
57827;BME280;43656;57.746;11.780;2023-01-05T13:19:51;101360.44;;;2.85;89.14
57827;BME280;43656;57.746;11.780;2023-01-05T13:22:23;101359.38;;;3.06;88.72
57827;BME280;43656;57.746;11.780;2023-01-05T13:25:19;101358.50;;;2.87;89.06
57827;BME280;43656;57.746;11.780;2023-01-05T13:27:45;101368.66;;;3.12;87.48
57827;BME280;43656;57.746;11.780;2023-01-05T13:30:30;101374.03;;;2.81;88.53
57827;BME280;43656;57.746;11.780;2023-01-05T13:47:02;101384.78;;;2.80;88.30
57827;BME280;43656;57.746;11.780;2023-01-05T13:55:04;101405.81;;;2.62;88.96
57827;BME280;43656;57.746;11.780;2023-01-05T13:57:38;101421.50;;;2.96;88.48
57827;BME280;43656;57.746;11.780;2023-01-05T14:00:08;101427.06;;;2.93;89.22
57827;BME280;43656;57.746;11.780;2023-01-05T14:02:45;101435.63;;;2.96;88.17
57827;BME280;43656;57.746;11.780;2023-01-05T14:05:24;101435.19;;;3.01;88.26
57827;BME280;43656;57.746;11.780;2023-01-05T14:07:55;101449.75;;;2.97;88.08
57827;BME280;43656;57.746;11.780;2023-01-05T14:10:25;101448.59;;;2.90;88.85
57827;BME280;43656;57.746;11.780;2023-01-05T14:12:52;101460.72;;;3.13;87.29
57827;BME280;43656;57.746;11.780;2023-01-05T14:15:32;101457.81;;;2.86;88.10
57827;BME280;43656;57.746;11.780;2023-01-05T14:18:00;101463.13;;;2.86;88.22
57827;BME280;43656;57.746;11.780;2023-01-05T14:25:58;101483.78;;;2.72;88.09
57827;BME280;43656;57.746;11.780;2023-01-05T14:33:51;101504.03;;;3.25;86.33
57827;BME280;43656;57.746;11.780;2023-01-05T14:39:35;101516.31;;;3.16;86.30
57827;BME280;43656;57.746;11.780;2023-01-05T14:44:43;101535.06;;;3.15;86.98
57827;BME280;43656;57.746;11.780;2023-01-05T14:47:10;101529.88;;;3.13;86.28
57827;BME280;43656;57.746;11.780;2023-01-05T14:49:36;101539.66;;;3.13;86.40
57827;BME280;43656;57.746;11.780;2023-01-05T14:52:05;101548.56;;;3.02;86.58
57827;BME280;43656;57.746;11.780;2023-01-05T15:00:15;101547.69;;;2.92;86.80
57827;BME280;43656;57.746;11.780;2023-01-05T15:05:22;101538.31;;;2.97;86.75
57827;BME280;43656;57.746;11.780;2023-01-05T15:16:09;101583.44;;;2.88;86.92
57827;BME280;43656;57.746;11.780;2023-01-05T15:19:12;101591.09;;;2.81;87.03
57827;BME280;43656;57.746;11.780;2023-01-05T15:21:51;101602.19;;;2.86;86.76
57827;BME280;43656;57.746;11.780;2023-01-05T15:24:47;101605.41;;;3.11;86.25
57827;BME280;43656;57.746;11.780;2023-01-05T15:27:32;101561.53;;;2.74;85.84
57827;BME280;43656;57.746;11.780;2023-01-05T15:30:34;101599.84;;;3.14;85.44
57827;BME280;43656;57.746;11.780;2023-01-05T15:35:48;101611.19;;;2.74;86.75
57827;BME280;43656;57.746;11.780;2023-01-05T15:38:26;101609.91;;;2.68;86.26